createdAt,value
2024-02-14T00:00:27.717Z,1.70
2024-02-14T00:02:54.548Z,1.40
2024-02-14T00:05:21.980Z,2.30
2024-02-14T00:07:48.825Z,3.20
2024-02-14T00:10:15.688Z,2.70
2024-02-14T00:12:42.620Z,1.30
2024-02-14T00:15:10.117Z,6.10
2024-02-14T00:17:37.126Z,1.70
2024-02-14T00:20:05.730Z,5.00
2024-02-14T00:22:32.930Z,3.90
2024-02-14T00:24:59.858Z,2.00
2024-02-14T00:27:27.965Z,1.50
2024-02-14T00:29:55.961Z,1.50
2024-02-14T00:32:23.689Z,2.40
2024-02-14T00:34:51.742Z,3.00
2024-02-14T00:37:21.217Z,1.80
2024-02-14T00:39:50.160Z,2.40
2024-02-14T00:42:17.690Z,2.40
2024-02-14T00:44:44.476Z,1.70
2024-02-14T00:47:11.488Z,2.10
2024-02-14T00:49:40.452Z,2.20
2024-02-14T00:52:07.907Z,1.10
2024-02-14T00:54:34.663Z,1.80
2024-02-14T00:57:01.585Z,1.60
2024-02-14T00:59:28.824Z,1.70
2024-02-14T01:01:55.600Z,2.10
2024-02-14T01:04:22.390Z,2.20
2024-02-14T01:06:50.955Z,2.00
2024-02-14T01:09:18.609Z,3.50
2024-02-14T01:11:46.222Z,1.40
2024-02-14T01:14:15.367Z,1.50
2024-02-14T01:16:46.783Z,1.70
2024-02-14T01:19:15.437Z,1.90
2024-02-14T01:21:42.888Z,2.60
2024-02-14T01:24:10.409Z,2.70
2024-02-14T01:26:37.404Z,1.90
2024-02-14T01:29:06.993Z,1.30
2024-02-14T01:31:37.157Z,1.20
2024-02-14T01:34:04.257Z,2.20
2024-02-14T01:36:31.661Z,2.20
2024-02-14T01:39:17.225Z,1.40
2024-02-14T01:41:49.802Z,1.80
2024-02-14T01:44:17.941Z,3.00
2024-02-14T01:46:45.877Z,2.60
2024-02-14T01:49:13.622Z,1.30
2024-02-14T01:51:45.137Z,1.70
2024-02-14T01:54:14.031Z,2.60
2024-02-14T01:56:42.178Z,1.50
2024-02-14T01:59:10.508Z,4.40
2024-02-14T02:01:37.315Z,5.10
2024-02-14T02:04:05.665Z,5.40
2024-02-14T02:06:33.403Z,6.20
2024-02-14T02:09:01.748Z,4.90
2024-02-14T02:11:28.834Z,3.80
2024-02-14T02:13:56.478Z,2.90
2024-02-14T02:16:23.313Z,1.70
2024-02-14T02:18:51.099Z,2.10
2024-02-14T02:21:21.142Z,1.80
2024-02-14T02:23:48.425Z,3.00
2024-02-14T02:26:15.954Z,1.90
2024-02-14T02:28:44.136Z,2.20
2024-02-14T02:31:11.503Z,4.40
2024-02-14T02:33:38.901Z,2.50
2024-02-14T02:36:07.945Z,3.30
2024-02-14T02:38:35.212Z,1.50
2024-02-14T02:41:02.316Z,3.60
2024-02-14T02:43:29.659Z,1.70
2024-02-14T02:45:58.364Z,2.60
2024-02-14T02:48:25.299Z,2.60
2024-02-14T02:50:53.112Z,4.20
2024-02-14T02:53:20.520Z,2.40
2024-02-14T02:55:47.270Z,3.00
2024-02-14T02:58:15.024Z,2.00
2024-02-14T03:00:41.934Z,2.20
2024-02-14T03:03:10.085Z,1.60
2024-02-14T03:05:37.351Z,2.20
2024-02-14T03:08:04.396Z,3.60
2024-02-14T03:10:31.878Z,3.20
2024-02-14T03:12:58.675Z,6.60
2024-02-14T03:15:27.211Z,3.10
2024-02-14T03:17:54.155Z,2.90
2024-02-14T03:20:21.532Z,2.50
2024-02-14T03:22:49.430Z,5.00
2024-02-14T03:25:21.227Z,5.40
2024-02-14T03:27:50.929Z,6.50
2024-02-14T03:30:19.162Z,6.30
2024-02-14T03:32:48.043Z,4.20
2024-02-14T03:35:15.131Z,5.00
2024-02-14T03:37:43.878Z,5.70
2024-02-14T03:40:11.544Z,5.10
2024-02-14T03:42:41.316Z,4.20
2024-02-14T03:45:09.571Z,3.40
2024-02-14T03:47:41.002Z,5.10
2024-02-14T03:50:09.568Z,13.30
2024-02-14T03:52:36.678Z,9.20
2024-02-14T03:55:04.361Z,9.20
2024-02-14T03:57:31.249Z,10.00
2024-02-14T04:00:05.018Z,9.50
2024-02-14T04:02:40.641Z,10.40
2024-02-14T04:05:09.130Z,10.00
2024-02-14T04:07:36.205Z,9.90
2024-02-14T04:10:03.050Z,10.30
2024-02-14T04:12:29.888Z,10.30
2024-02-14T04:14:56.711Z,9.30
2024-02-14T04:17:24.007Z,10.30
2024-02-14T04:19:51.293Z,11.00
2024-02-14T04:22:18.120Z,8.70
2024-02-14T04:24:44.951Z,10.40
2024-02-14T04:27:11.692Z,10.00
2024-02-14T04:29:38.446Z,10.20
2024-02-14T04:32:05.441Z,10.30
2024-02-14T04:34:32.970Z,9.40
2024-02-14T04:36:59.882Z,7.20
2024-02-14T04:39:26.623Z,8.60
2024-02-14T04:42:01.047Z,6.10
2024-02-14T04:44:30.535Z,7.70
2024-02-14T04:46:59.485Z,7.90
2024-02-14T04:49:27.392Z,8.10
2024-02-14T04:51:54.365Z,8.20
2024-02-14T04:54:21.158Z,14.60
2024-02-14T04:56:51.480Z,9.90
2024-02-14T04:59:20.619Z,12.70
2024-02-14T05:01:47.526Z,9.60
2024-02-14T05:04:14.382Z,7.30
2024-02-14T05:06:41.536Z,6.50
2024-02-14T05:09:08.434Z,10.20
2024-02-14T05:11:35.649Z,8.30
2024-02-14T05:14:03.362Z,8.10
2024-02-14T05:16:30.466Z,10.60
2024-02-14T05:18:57.337Z,7.30
2024-02-14T05:21:24.255Z,4.30
2024-02-14T05:23:51.834Z,5.10
2024-02-14T05:26:18.736Z,6.30
2024-02-14T05:28:45.664Z,5.10
2024-02-14T05:31:12.336Z,6.20
2024-02-14T05:36:07.317Z,6.10
2024-02-14T05:38:35.517Z,6.20
2024-02-14T05:41:02.956Z,5.90
2024-02-14T05:43:29.880Z,7.10
2024-02-14T05:45:56.711Z,8.00
2024-02-14T05:48:23.815Z,6.30
2024-02-14T05:50:50.943Z,5.20
2024-02-14T05:53:17.795Z,4.80
2024-02-14T05:55:44.823Z,5.50
2024-02-14T05:58:11.951Z,8.20
2024-02-14T06:00:39.849Z,4.80
2024-02-14T06:03:08.189Z,4.70
2024-02-14T06:05:35.987Z,7.00
2024-02-14T06:08:04.578Z,3.90
2024-02-14T06:10:31.542Z,8.50
2024-02-14T06:12:58.370Z,8.90
2024-02-14T06:15:25.217Z,10.60
2024-02-14T06:17:52.520Z,7.40
2024-02-14T06:20:19.801Z,7.70
2024-02-14T06:22:53.631Z,8.50
2024-02-14T06:25:28.313Z,9.70
2024-02-14T06:27:57.971Z,14.90
2024-02-14T06:30:25.762Z,10.70
2024-02-14T06:32:54.094Z,9.60
2024-02-14T06:35:22.131Z,7.60
2024-02-14T06:37:55.937Z,7.90
2024-02-14T06:40:31.039Z,9.60
2024-02-14T06:42:59.877Z,8.30
2024-02-14T06:45:28.959Z,6.90
2024-02-14T06:47:56.456Z,9.00
2024-02-14T06:50:23.527Z,8.50
2024-02-14T06:52:50.271Z,8.30
2024-02-14T06:55:17.046Z,10.70
2024-02-14T06:57:43.785Z,10.10
2024-02-14T07:00:11.838Z,12.40
2024-02-14T07:02:38.941Z,11.80
2024-02-14T07:05:08.552Z,10.90
2024-02-14T07:07:35.328Z,13.20
2024-02-14T07:10:02.638Z,15.80
2024-02-14T07:12:31.717Z,15.10
2024-02-14T07:14:58.695Z,9.80
2024-02-14T07:17:25.684Z,11.30
2024-02-14T07:19:52.758Z,12.10
2024-02-14T07:22:22.472Z,9.30
2024-02-14T07:24:49.457Z,9.50
2024-02-14T07:27:17.961Z,10.50
2024-02-14T07:29:46.233Z,9.30
2024-02-14T07:32:13.093Z,10.70
2024-02-14T07:34:43.536Z,10.90
2024-02-14T07:37:10.379Z,13.50
2024-02-14T07:39:37.334Z,13.20
2024-02-14T07:42:04.679Z,11.40
2024-02-14T07:44:32.591Z,10.50
2024-02-14T07:47:02.532Z,10.30
2024-02-14T07:49:32.093Z,10.00
2024-02-14T07:51:59.239Z,9.20
2024-02-14T07:54:26.206Z,9.50
2024-02-14T07:56:53.312Z,11.40
2024-02-14T07:59:21.820Z,11.80
2024-02-14T08:01:49.233Z,9.60
2024-02-14T08:04:17.256Z,10.80
2024-02-14T08:06:47.025Z,9.60
2024-02-14T08:09:14.049Z,11.70
2024-02-14T08:11:41.461Z,12.30
2024-02-14T08:14:08.365Z,11.60
2024-02-14T08:16:35.224Z,12.90
2024-02-14T08:19:04.191Z,12.30
2024-02-14T08:21:32.739Z,10.20
2024-02-14T08:24:01.352Z,11.00
2024-02-14T08:26:29.545Z,13.20
2024-02-14T08:28:56.690Z,10.30
2024-02-14T08:31:23.955Z,12.30
2024-02-14T08:33:51.471Z,14.50
2024-02-14T08:36:20.906Z,9.80
2024-02-14T08:38:48.428Z,12.60
2024-02-14T08:41:15.544Z,10.80
2024-02-14T08:43:45.930Z,13.00
2024-02-14T08:46:14.610Z,8.80
2024-02-14T08:48:48.113Z,16.50
2024-02-14T08:51:16.157Z,9.90
2024-02-14T08:53:46.602Z,11.40
2024-02-14T08:56:15.132Z,11.40
2024-02-14T08:58:42.541Z,13.30
2024-02-14T09:01:14.927Z,7.80
2024-02-14T09:03:50.538Z,12.70
2024-02-14T09:06:20.041Z,10.80
2024-02-14T09:08:48.292Z,8.90
2024-02-14T09:11:15.560Z,9.60
2024-02-14T09:13:42.724Z,9.30
2024-02-14T09:16:11.112Z,9.90
2024-02-14T09:18:38.776Z,10.20
2024-02-14T09:21:07.059Z,10.10
2024-02-14T09:23:35.015Z,9.90
2024-02-14T09:26:03.260Z,9.60
2024-02-14T09:28:30.695Z,14.30
2024-02-14T09:30:57.871Z,10.80
2024-02-14T09:33:24.946Z,12.40
2024-02-14T09:35:54.089Z,11.50
2024-02-14T09:38:21.340Z,13.30
2024-02-14T09:40:48.473Z,13.10
2024-02-14T09:43:24.357Z,10.20
2024-02-14T09:45:53.504Z,10.50
2024-02-14T09:48:22.268Z,9.20
2024-02-14T09:50:50.316Z,9.00
2024-02-14T09:53:18.316Z,9.60
2024-02-14T09:55:47.443Z,10.70
2024-02-14T09:58:16.411Z,8.50
2024-02-14T10:00:51.712Z,6.80
2024-02-14T10:03:19.607Z,9.40
2024-02-14T10:05:46.538Z,8.90
2024-02-14T10:08:13.627Z,7.10
2024-02-14T10:10:40.623Z,8.90
2024-02-14T10:13:08.351Z,9.30
2024-02-14T10:15:36.764Z,12.20
2024-02-14T10:18:04.699Z,9.80
2024-02-14T10:20:33.638Z,10.10
2024-02-14T10:23:07.261Z,10.60
2024-02-14T10:25:36.203Z,8.20
2024-02-14T10:28:09.887Z,9.30
2024-02-14T10:30:39.533Z,12.30
2024-02-14T10:33:17.086Z,10.90
2024-02-14T10:35:51.933Z,12.00
2024-02-14T10:38:21.518Z,10.10
2024-02-14T10:40:49.993Z,12.10
2024-02-14T10:43:17.070Z,9.80
2024-02-14T10:45:44.252Z,9.70
2024-02-14T10:48:13.502Z,9.20
2024-02-14T10:50:42.782Z,9.40
2024-02-14T10:53:15.635Z,9.10
2024-02-14T10:55:48.819Z,10.80
2024-02-14T10:58:17.852Z,11.20
2024-02-14T11:00:47.510Z,13.30
2024-02-14T11:03:16.639Z,11.70
2024-02-14T11:05:47.800Z,11.00
2024-02-14T11:08:16.489Z,12.00
2024-02-14T11:10:43.777Z,9.70
2024-02-14T11:13:16.887Z,13.10
2024-02-14T11:15:47.970Z,13.00
2024-02-14T11:18:14.883Z,10.50
2024-02-14T11:20:43.664Z,9.40
2024-02-14T11:23:12.812Z,9.80
2024-02-14T11:25:39.906Z,11.70
2024-02-14T11:28:18.554Z,13.30
2024-02-14T11:33:16.038Z,11.90
2024-02-14T11:35:43.792Z,11.30
2024-02-14T11:38:11.219Z,12.50
2024-02-14T11:40:42.307Z,9.10
2024-02-14T11:43:14.055Z,12.50
2024-02-14T11:45:43.296Z,11.50
2024-02-14T11:48:14.648Z,9.40
2024-02-14T11:50:44.316Z,10.70
2024-02-14T11:53:18.134Z,12.20
2024-02-14T11:55:44.903Z,15.30
2024-02-14T11:58:13.874Z,11.30
2024-02-14T12:00:42.328Z,10.60
2024-02-14T12:03:14.376Z,12.90
2024-02-14T12:05:42.848Z,13.00
2024-02-14T12:08:11.100Z,12.30
2024-02-14T12:10:41.129Z,13.80
2024-02-14T12:13:13.406Z,12.20
2024-02-14T12:15:41.408Z,10.20
2024-02-14T12:18:15.217Z,11.20
2024-02-14T12:20:45.316Z,12.40
2024-02-14T12:23:19.513Z,11.60
2024-02-14T12:25:47.887Z,11.50
2024-02-14T12:28:18.572Z,8.40
2024-02-14T12:30:59.700Z,11.30
2024-02-14T12:33:28.037Z,12.00
2024-02-14T12:35:56.479Z,13.70
2024-02-14T12:38:24.617Z,12.40
2024-02-14T12:40:54.653Z,14.50
2024-02-14T12:43:21.747Z,11.30
2024-02-14T12:45:48.947Z,11.70
2024-02-14T12:48:24.028Z,12.40
2024-02-14T12:50:52.796Z,11.30
2024-02-14T12:53:20.965Z,12.40
2024-02-14T12:55:48.347Z,11.50
2024-02-14T12:58:16.202Z,13.90
2024-02-14T13:00:44.584Z,12.80
2024-02-14T13:03:15.071Z,11.80
2024-02-14T13:05:43.425Z,11.10
2024-02-14T13:08:12.682Z,14.10
2024-02-14T13:10:39.838Z,12.80
2024-02-14T13:13:06.765Z,13.20
2024-02-14T13:15:33.729Z,12.00
2024-02-14T13:18:01.806Z,15.90
2024-02-14T13:20:29.302Z,15.50
2024-02-14T13:22:56.670Z,12.50
2024-02-14T13:25:23.421Z,15.70
2024-02-14T13:27:50.389Z,13.20
2024-02-14T13:30:17.283Z,13.60
2024-02-14T13:32:44.247Z,12.10
2024-02-14T13:35:12.714Z,12.70
2024-02-14T13:37:39.616Z,13.90
2024-02-14T13:40:11.410Z,12.60
2024-02-14T13:42:39.119Z,10.80
2024-02-14T13:45:13.241Z,12.60
2024-02-14T13:47:40.494Z,14.50
2024-02-14T13:50:10.128Z,13.40
2024-02-14T13:52:37.821Z,10.60
2024-02-14T13:55:06.631Z,13.20
2024-02-14T13:57:42.848Z,13.00
2024-02-14T14:00:10.994Z,11.90
2024-02-14T14:02:44.511Z,12.10
2024-02-14T14:05:14.841Z,13.90
2024-02-14T14:07:53.286Z,16.00
2024-02-14T14:10:26.943Z,13.50
2024-02-14T14:12:53.852Z,13.50
2024-02-14T14:15:20.862Z,15.80
2024-02-14T14:17:48.122Z,12.60
2024-02-14T14:20:15.479Z,13.20
2024-02-14T14:22:42.582Z,15.30
2024-02-14T14:25:09.988Z,14.70
2024-02-14T14:27:37.115Z,14.50
2024-02-14T14:30:05.588Z,13.60
2024-02-14T14:32:32.643Z,13.20
2024-02-14T14:34:59.548Z,17.20
2024-02-14T14:37:26.286Z,13.90
2024-02-14T14:39:53.124Z,16.20
2024-02-14T14:42:20.158Z,13.80
2024-02-14T14:44:46.908Z,15.00
2024-02-14T14:47:14.471Z,17.60
2024-02-14T14:49:43.441Z,16.10
2024-02-14T14:52:10.184Z,19.10
2024-02-14T14:54:38.093Z,15.00
2024-02-14T14:57:08.475Z,15.00
2024-02-14T14:59:36.590Z,14.00
2024-02-14T15:02:03.703Z,16.40
2024-02-14T15:04:30.699Z,15.90
2024-02-14T15:06:57.655Z,15.80
2024-02-14T15:09:24.657Z,14.10
2024-02-14T15:11:51.820Z,13.80
2024-02-14T15:14:19.252Z,15.80
2024-02-14T15:16:46.199Z,16.30
2024-02-14T15:19:13.204Z,17.30
2024-02-14T15:21:40.086Z,21.20
2024-02-14T15:24:08.100Z,18.70
2024-02-14T15:26:50.932Z,18.10
2024-02-14T15:29:38.434Z,15.30
2024-02-14T15:32:24.846Z,19.70
2024-02-14T15:34:52.390Z,20.30
2024-02-14T15:37:19.286Z,17.90
2024-02-14T15:39:46.199Z,18.20
2024-02-14T15:42:13.466Z,15.30
2024-02-14T15:44:40.967Z,22.30
2024-02-14T15:47:09.098Z,19.40
2024-02-14T15:49:36.874Z,17.60
2024-02-14T15:52:06.110Z,23.20
2024-02-14T15:54:33.018Z,19.50
2024-02-14T15:57:01.394Z,21.80
2024-02-14T15:59:28.959Z,18.90
2024-02-14T16:01:56.992Z,18.30
2024-02-14T16:04:24.710Z,17.40
2024-02-14T16:06:51.895Z,20.60
2024-02-14T16:09:18.784Z,18.30
2024-02-14T16:11:45.820Z,28.10
2024-02-14T16:14:12.812Z,19.90
2024-02-14T16:16:39.582Z,22.00
2024-02-14T16:19:07.301Z,22.70
2024-02-14T16:21:34.347Z,20.20
2024-02-14T16:24:01.191Z,22.10
2024-02-14T16:26:31.178Z,26.30
2024-02-14T16:28:58.664Z,24.00
2024-02-14T16:31:25.820Z,23.90
2024-02-14T16:33:52.950Z,20.50
2024-02-14T16:36:19.898Z,20.30
2024-02-14T16:38:46.798Z,23.60
2024-02-14T16:41:13.762Z,22.10
2024-02-14T16:43:40.427Z,21.30
2024-02-14T16:46:07.486Z,21.90
2024-02-14T16:48:34.517Z,25.00
2024-02-14T16:51:01.643Z,21.00
2024-02-14T16:53:28.501Z,31.30
2024-02-14T16:55:55.981Z,39.80
2024-02-14T16:58:23.002Z,23.40
2024-02-14T17:00:50.521Z,26.80
2024-02-14T17:03:17.819Z,21.90
2024-02-14T17:05:47.468Z,23.10
2024-02-14T17:08:14.518Z,21.50
2024-02-14T17:10:41.418Z,26.50
2024-02-14T17:13:09.035Z,22.70
2024-02-14T17:15:36.608Z,21.50
2024-02-14T17:18:06.052Z,21.70
2024-02-14T17:20:33.039Z,20.40
2024-02-14T17:23:00.013Z,27.10
2024-02-14T17:25:26.776Z,21.70
2024-02-14T17:27:53.609Z,23.40
2024-02-14T17:30:21.817Z,21.10
2024-02-14T17:32:50.009Z,22.20
2024-02-14T17:35:17.887Z,23.00
2024-02-14T17:37:44.861Z,20.50
2024-02-14T17:40:12.207Z,19.50
2024-02-14T17:42:39.856Z,23.50
2024-02-14T17:45:07.634Z,24.40
2024-02-14T17:47:35.312Z,26.20
2024-02-14T17:50:04.216Z,24.30
2024-02-14T17:52:31.239Z,23.10
2024-02-14T17:54:58.915Z,21.10
2024-02-14T17:57:26.323Z,25.70
2024-02-14T17:59:53.877Z,26.20
2024-02-14T18:02:21.486Z,21.20
2024-02-14T18:04:48.381Z,23.10
2024-02-14T18:07:15.394Z,20.00
2024-02-14T18:09:42.633Z,23.70
2024-02-14T18:12:09.902Z,25.80
2024-02-14T18:14:36.931Z,23.00
2024-02-14T18:17:04.000Z,23.00
2024-02-14T18:19:31.159Z,23.40
2024-02-14T18:21:58.236Z,25.60
2024-02-14T18:24:25.147Z,23.50
2024-02-14T18:26:51.908Z,21.30
2024-02-14T18:29:19.014Z,25.10
2024-02-14T18:31:46.172Z,26.40
2024-02-14T18:34:13.277Z,23.50
2024-02-14T18:36:40.376Z,23.20
2024-02-14T18:39:07.578Z,23.80
2024-02-14T18:41:36.115Z,24.00
2024-02-14T18:44:05.375Z,23.60
2024-02-14T18:46:33.930Z,23.50
2024-02-14T18:49:00.941Z,25.10
2024-02-14T18:51:28.018Z,22.50
2024-02-14T18:53:54.944Z,24.00
2024-02-14T18:56:22.151Z,22.80
2024-02-14T18:58:50.882Z,24.10
2024-02-14T19:01:28.854Z,21.50
2024-02-14T19:03:56.706Z,23.30
2024-02-14T19:06:32.041Z,26.20
2024-02-14T19:08:58.918Z,20.20
2024-02-14T19:11:26.210Z,20.40
2024-02-14T19:13:55.200Z,21.60
2024-02-14T19:16:28.336Z,24.70
2024-02-14T19:19:00.196Z,23.20
2024-02-14T19:21:27.183Z,25.10
2024-02-14T19:23:54.039Z,24.20
2024-02-14T19:26:22.504Z,23.40
2024-02-14T19:28:50.064Z,23.60
2024-02-14T19:31:16.994Z,23.50
2024-02-14T19:33:44.414Z,22.60
2024-02-14T19:36:11.383Z,23.40
2024-02-14T19:38:38.745Z,24.10
2024-02-14T19:41:05.903Z,26.90
2024-02-14T19:43:39.185Z,22.70
2024-02-14T19:46:07.388Z,26.20
2024-02-14T19:48:36.459Z,24.10
2024-02-14T19:51:04.721Z,23.00
2024-02-14T19:53:33.391Z,21.90
2024-02-14T19:56:00.471Z,20.80
2024-02-14T19:58:28.150Z,22.20
2024-02-14T20:00:55.363Z,24.00
2024-02-14T20:03:22.570Z,22.90
2024-02-14T20:05:49.744Z,21.10
2024-02-14T20:08:16.844Z,21.40
2024-02-14T20:10:44.001Z,23.30
2024-02-14T20:13:11.140Z,24.80
2024-02-14T20:15:38.464Z,24.80
2024-02-14T20:18:05.967Z,22.20
2024-02-14T20:20:33.030Z,22.70
2024-02-14T20:23:00.059Z,20.40
2024-02-14T20:25:27.204Z,17.70
2024-02-14T20:27:55.321Z,20.80
2024-02-14T20:30:22.515Z,22.10
2024-02-14T20:32:49.671Z,21.40
2024-02-14T20:35:16.991Z,22.20
2024-02-14T20:37:44.717Z,23.80
2024-02-14T20:40:14.720Z,19.40
2024-02-14T20:42:46.181Z,22.30
2024-02-14T20:45:14.146Z,19.30
2024-02-14T20:47:44.161Z,25.40
2024-02-14T20:50:11.046Z,20.10
2024-02-14T20:52:38.844Z,21.90
2024-02-14T20:55:06.316Z,22.80
2024-02-14T20:57:34.501Z,25.20
2024-02-14T21:00:02.134Z,23.30
2024-02-14T21:02:29.152Z,21.90
2024-02-14T21:04:56.374Z,21.50
2024-02-14T21:07:23.662Z,20.20
2024-02-14T21:09:50.416Z,24.70
2024-02-14T21:14:45.897Z,21.50
2024-02-14T21:17:13.108Z,21.80
2024-02-14T21:19:39.964Z,28.10
2024-02-14T21:22:07.267Z,21.20
2024-02-14T21:24:33.965Z,20.60
2024-02-14T21:29:27.883Z,24.30
2024-02-14T21:31:55.013Z,21.30
2024-02-14T21:34:22.153Z,22.20
2024-02-14T21:36:49.194Z,20.80
2024-02-14T21:39:18.920Z,18.90
2024-02-14T21:41:47.432Z,25.40
2024-02-14T21:44:14.698Z,21.80
2024-02-14T21:46:43.526Z,18.20
2024-02-14T21:49:15.782Z,26.30
2024-02-14T21:51:42.859Z,22.00
2024-02-14T21:54:09.705Z,24.30
2024-02-14T21:56:36.516Z,26.10
2024-02-14T21:59:03.769Z,21.70
2024-02-14T22:01:30.630Z,23.00
2024-02-14T22:03:57.371Z,19.90
2024-02-14T22:06:24.292Z,25.00
2024-02-14T22:26:02.350Z,22.60
2024-02-14T22:28:35.847Z,20.70
2024-02-14T22:31:03.761Z,22.50
2024-02-14T22:33:31.101Z,22.10
2024-02-14T22:35:58.264Z,20.30
2024-02-14T22:38:25.401Z,18.90
2024-02-14T22:40:52.372Z,21.00
2024-02-14T22:43:19.277Z,22.50
2024-02-14T22:45:46.295Z,21.80
2024-02-14T22:48:14.209Z,21.10
2024-02-14T22:50:41.125Z,21.80
2024-02-14T22:53:08.979Z,24.80
2024-02-14T22:55:36.135Z,20.00
2024-02-14T22:58:04.937Z,21.80
2024-02-14T23:00:34.947Z,21.50
2024-02-14T23:03:07.409Z,19.40
2024-02-14T23:05:35.996Z,21.40
2024-02-14T23:08:03.520Z,20.50
2024-02-14T23:10:30.745Z,18.30
2024-02-14T23:12:57.431Z,17.40
2024-02-14T23:15:24.439Z,14.30
2024-02-14T23:17:52.143Z,18.70
2024-02-14T23:20:19.575Z,19.30
2024-02-14T23:22:46.430Z,20.20
2024-02-14T23:25:13.359Z,16.60
2024-02-14T23:27:44.052Z,19.30
2024-02-14T23:30:11.607Z,15.90
2024-02-14T23:32:40.519Z,20.10
2024-02-14T23:35:11.489Z,17.10
2024-02-14T23:37:41.886Z,14.20
2024-02-14T23:40:12.060Z,15.30
2024-02-14T23:42:46.296Z,14.90
2024-02-14T23:45:13.098Z,17.80
2024-02-14T23:47:40.714Z,19.90
2024-02-14T23:50:12.005Z,18.50
2024-02-14T23:52:40.054Z,17.20
2024-02-14T23:55:07.091Z,16.70
2024-02-14T23:57:34.699Z,17.10
